Time;durP1;ratioP1;P1;durP2;ratioP2;P2;SDS_P1;SDS_P2;PMS_P1;PMS_P2;Temp;Humidity;BMP_temperature;BMP_pressure;BME280_temperature;BME280_humidity;BME280_pressure;Samples;Min_cycle;Max_cycle;Signal;HPM_P1;HPM_P2
2021/01/31 00:00:44;;;;;;;35.98;22.26;;;;;;;-0.88;70.85;97144.78;338024;111;2409904;-72
2021/01/31 00:01:49;;;;;;;37.81;23.72;;;;;;;-0.90;70.77;97147.64;360356;110;1963034;-72
2021/01/31 00:02:55;;;;;;;34.34;21.74;;;;;;;-0.89;70.72;97156.41;328371;111;2558001;-72
2021/01/31 00:04:01;;;;;;;32.97;20.61;;;;;;;-0.83;70.51;97168.06;355860;111;1962045;-72
2021/01/31 00:05:08;;;;;;;33.88;22.37;;;;;;;-0.86;70.50;97166.61;355221;112;1961967;-72
2021/01/31 00:06:16;;;;;;;32.76;20.92;;;;;;;-0.85;70.54;97154.98;326796;113;2512036;-72
2021/01/31 00:07:23;;;;;;;34.87;22.41;;;;;;;-0.94;70.76;97140.27;346409;115;1962028;-72
2021/01/31 00:08:30;;;;;;;34.38;21.92;;;;;;;-0.92;70.77;97131.11;323121;110;2662959;-72
2021/01/31 00:09:35;;;;;;;33.43;21.81;;;;;;;-0.97;70.79;97119.47;361869;111;1961965;-72
2021/01/31 00:10:42;;;;;;;35.24;21.43;;;;;;;-1.00;70.97;97130.46;361187;111;1961949;-73
2021/01/31 00:11:48;;;;;;;32.14;20.97;;;;;;;-1.04;71.22;97115.95;351475;109;2903982;-72
2021/01/31 00:12:54;;;;;;;37.98;22.53;;;;;;;-1.00;71.20;97111.91;337090;111;1962944;-73
2021/01/31 00:14:00;;;;;;;32.64;21.09;;;;;;;-1.01;71.32;97108.42;361518;111;1961995;-72
2021/01/31 00:15:07;;;;;;;37.44;21.86;;;;;;;-0.98;71.05;97105.41;361999;111;1961989;-71
2021/01/31 00:16:14;;;;;;;35.16;21.87;;;;;;;-1.01;71.03;97107.61;361997;111;1961955;-71
2021/01/31 00:17:19;;;;;;;31.01;20.69;;;;;;;-0.95;71.03;97109.50;361731;111;1962026;-72
2021/01/31 00:18:28;;;;;;;36.47;22.18;;;;;;;-0.96;70.79;97113.95;361512;111;1963939;-71
2021/01/31 00:19:33;;;;;;;32.63;21.05;;;;;;;-0.96;70.66;97113.14;361388;107;1963020;-73
2021/01/31 00:20:44;;;;;;;31.62;20.05;;;;;;;-0.95;70.47;97136.81;340634;117;1961986;-73
2021/01/31 00:21:50;;;;;;;35.18;21.78;;;;;;;-1.08;70.76;97127.97;340725;117;1963032;-72
2021/01/31 00:22:56;;;;;;;33.17;22.35;;;;;;;-1.05;70.88;97133.69;297456;119;2814075;-73
2021/01/31 00:24:01;;;;;;;35.50;22.56;;;;;;;-0.97;70.53;97141.48;356065;108;1961832;-71
2021/01/31 00:25:08;;;;;;;38.83;22.68;;;;;;;-1.00;70.57;97152.47;360016;110;1962009;-71
2021/01/31 00:26:15;;;;;;;33.59;22.11;;;;;;;-0.99;70.56;97155.94;311708;106;2137885;-70
2021/01/31 00:27:23;;;;;;;37.24;23.18;;;;;;;-0.98;70.50;97161.05;354167;113;1962024;-70
2021/01/31 00:28:28;;;;;;;35.19;23.11;;;;;;;-1.03;70.35;97162.62;363710;108;1960785;-71
2021/01/31 00:29:34;;;;;;;37.19;24.14;;;;;;;-1.02;70.35;97165.09;328586;111;2604935;-71
2021/01/31 00:30:43;;;;;;;35.63;22.16;;;;;;;-1.01;70.25;97155.30;363406;109;1964006;-71
2021/01/31 00:31:49;;;;;;;40.99;25.13;;;;;;;-1.03;70.25;97159.97;338489;111;2424007;-72
2021/01/31 00:32:55;;;;;;;36.68;22.77;;;;;;;-1.07;70.08;97162.20;361711;111;1961992;-71
2021/01/31 00:34:00;;;;;;;37.19;23.52;;;;;;;-1.15;69.95;97175.59;363331;109;1960940;-71
2021/01/31 00:35:08;;;;;;;39.76;25.84;;;;;;;-1.27;70.41;97166.53;365060;110;1962927;-71
2021/01/31 00:36:14;;;;;;;42.15;25.97;;;;;;;-1.26;70.49;97169.00;350768;114;1960961;-71
2021/01/31 00:37:22;;;;;;;38.86;23.33;;;;;;;-1.27;70.59;97164.72;355896;110;1960920;-71
2021/01/31 00:38:29;;;;;;;42.19;25.91;;;;;;;-1.24;70.22;97176.77;359656;110;1962020;-71
2021/01/31 00:39:34;;;;;;;36.57;23.30;;;;;;;-1.34;70.39;97182.38;356443;111;1963968;-71
2021/01/31 00:40:42;;;;;;;44.52;25.92;;;;;;;-1.39;70.72;97180.30;320472;111;2033499;-71
2021/01/31 00:41:48;;;;;;;39.33;25.36;;;;;;;-1.42;70.89;97179.88;362915;110;1961894;-71
2021/01/31 00:42:54;;;;;;;35.23;24.38;;;;;;;-1.41;70.80;97200.03;365499;108;1961973;-70
2021/01/31 00:44:03;;;;;;;37.40;22.90;;;;;;;-1.42;70.65;97201.87;332029;111;2490089;-70
2021/01/31 00:45:13;;;;;;;35.56;22.88;;;;;;;-1.34;70.34;97187.67;359097;110;1962012;-70
2021/01/31 00:46:18;;;;;;;36.71;22.32;;;;;;;-1.37;70.29;97209.25;359861;110;1961981;-69
2021/01/31 00:47:24;;;;;;;31.12;20.88;;;;;;;-1.52;70.63;97211.14;322701;112;2663953;-70
2021/01/31 00:48:41;;;;;;;32.11;20.11;;;;;;;-1.51;70.71;97210.94;333018;112;1962958;-70
2021/01/31 00:49:56;;;;;;;31.46;21.41;;;;;;;-1.53;70.55;97212.98;352898;113;1963908;-71
2021/01/31 00:51:10;;;;;;;33.58;21.26;;;;;;;-1.50;70.72;97209.95;341598;115;1961970;-71
2021/01/31 00:52:19;;;;;;;35.04;22.08;;;;;;;-1.55;70.79;97213.16;352376;114;1963980;-71
2021/01/31 00:53:27;;;;;;;31.69;19.04;;;;;;;-1.50;70.63;97214.42;352097;114;1961942;-71
2021/01/31 00:54:34;;;;;;;29.72;18.82;;;;;;;-1.59;70.55;97213.72;352519;113;1962004;-71
2021/01/31 00:55:51;;;;;;;32.08;16.89;;;;;;;-1.58;70.88;97212.72;352058;112;1963929;-71
2021/01/31 00:56:58;;;;;;;29.57;17.94;;;;;;;-1.70;70.87;97215.03;363775;106;1961897;-72
2021/01/31 00:58:14;;;;;;;27.23;16.73;;;;;;;-1.64;71.05;97210.81;346034;114;1962996;-72
2021/01/31 00:59:20;;;;;;;26.08;16.79;;;;;;;-1.63;70.87;97218.58;342374;113;1962088;-71
2021/01/31 01:00:29;;;;;;;26.84;16.67;;;;;;;-1.66;70.85;97226.90;321273;112;2596993;-72
2021/01/31 01:01:37;;;;;;;24.64;15.87;;;;;;;-1.70;71.03;97211.58;310007;112;2223948;-72
2021/01/31 01:02:42;;;;;;;24.12;14.03;;;;;;;-1.67;70.89;97240.30;353929;112;1960615;-72
2021/01/31 01:03:47;;;;;;;22.77;14.21;;;;;;;-1.72;70.71;97222.37;349676;114;1960863;-71
2021/01/31 01:04:55;;;;;;;24.01;13.35;;;;;;;-1.70;70.97;97222.16;332027;114;2227980;-72
2021/01/31 01:06:00;;;;;;;21.57;13.98;;;;;;;-1.72;71.01;97234.75;326521;114;1963927;-72
2021/01/31 01:07:05;;;;;;;22.66;13.55;;;;;;;-1.66;70.86;97221.61;346048;115;1965000;-71
2021/01/31 01:08:10;;;;;;;20.69;12.19;;;;;;;-1.67;70.81;97241.13;350442;114;1961997;-72
2021/01/31 01:09:16;;;;;;;20.18;13.04;;;;;;;-1.81;71.30;97234.87;349181;115;1961990;-71
2021/01/31 01:10:25;;;;;;;22.04;12.60;;;;;;;-1.73;71.08;97226.00;348882;115;1963947;-72
2021/01/31 01:11:32;;;;;;;22.83;13.50;;;;;;;-1.78;71.14;97231.04;349859;114;1962963;-72
2021/01/31 01:12:38;;;;;;;20.46;13.80;;;;;;;-1.71;71.15;97234.58;305645;115;2816934;-72
2021/01/31 01:13:43;;;;;;;21.63;13.29;;;;;;;-1.76;71.20;97226.38;344328;115;1962052;-71
2021/01/31 01:14:48;;;;;;;19.76;11.56;;;;;;;-1.66;70.93;97234.84;347683;115;1961995;-72
2021/01/31 01:15:54;;;;;;;19.35;12.00;;;;;;;-1.61;70.46;97247.52;350239;111;1962046;-71
2021/01/31 01:17:01;;;;;;;18.76;11.28;;;;;;;-1.71;70.57;97239.06;350055;114;1963004;-71
2021/01/31 01:18:07;;;;;;;19.41;12.25;;;;;;;-1.73;70.48;97247.17;330150;115;1963056;-72
2021/01/31 01:19:12;;;;;;;19.14;12.29;;;;;;;-1.73;70.67;97249.82;352415;114;1962959;-71
2021/01/31 01:20:18;;;;;;;18.45;11.90;;;;;;;-1.75;70.74;97230.66;351261;114;1961905;-71
2021/01/31 01:21:26;;;;;;;15.69;10.66;;;;;;;-1.70;70.77;97238.04;348950;115;1961917;-71
2021/01/31 01:22:31;;;;;;;15.29;10.14;;;;;;;-1.69;70.61;97237.02;342020;114;1961951;-72
2021/01/31 01:23:36;;;;;;;17.72;10.37;;;;;;;-1.78;70.46;97247.73;349080;111;1961961;-71
2021/01/31 01:24:42;;;;;;;19.97;10.93;;;;;;;-1.81;70.59;97249.94;348652;115;1961883;-71
2021/01/31 01:25:47;;;;;;;17.40;11.30;;;;;;;-1.90;70.88;97257.18;348326;114;1962009;-71
2021/01/31 01:26:54;;;;;;;18.03;11.34;;;;;;;-1.91;71.01;97252.06;316530;111;2939014;-72
2021/01/31 01:28:00;;;;;;;17.96;11.59;;;;;;;-1.82;70.81;97246.48;350105;115;1964000;-72
2021/01/31 01:29:05;;;;;;;17.43;11.64;;;;;;;-1.86;70.51;97268.20;349836;115;1961978;-72
2021/01/31 01:30:16;;;;;;;19.11;10.43;;;;;;;-1.85;70.79;97269.86;348537;114;1964025;-72
2021/01/31 01:31:24;;;;;;;20.48;10.66;;;;;;;-1.82;70.76;97258.89;302241;112;2171038;-71
2021/01/31 01:32:30;;;;;;;19.18;11.30;;;;;;;-1.98;71.32;97254.64;344779;110;1961356;-72
2021/01/31 01:33:45;;;;;;;20.82;11.18;;;;;;;-1.87;70.98;97254.16;342120;117;1961970;-71
2021/01/31 01:34:51;;;;;;;13.94;8.81;;;;;;;-1.87;70.92;97258.63;352527;114;1961968;-72
2021/01/31 01:35:56;;;;;;;17.48;9.69;;;;;;;-1.84;70.74;97272.30;336566;114;2222059;-72
2021/01/31 01:37:02;;;;;;;16.30;9.88;;;;;;;-1.91;71.05;97260.00;326848;116;1964030;-72
2021/01/31 01:38:07;;;;;;;14.85;9.70;;;;;;;-1.86;70.75;97268.20;350278;112;1960657;-72
2021/01/31 01:39:12;;;;;;;15.27;9.28;;;;;;;-1.95;70.94;97271.98;357998;111;1962014;-72
2021/01/31 01:40:29;;;;;;;15.61;9.11;;;;;;;-1.99;71.15;97259.09;358075;111;1961881;-72
2021/01/31 01:41:44;;;;;;;12.83;7.92;;;;;;;-1.99;71.23;97271.50;327030;110;2241830;-71
2021/01/31 01:42:50;;;;;;;12.67;7.76;;;;;;;-1.98;71.08;97278.45;325908;113;2450913;-72
2021/01/31 01:43:55;;;;;;;14.28;8.36;;;;;;;-2.08;71.26;97277.92;345011;114;1962026;-72
2021/01/31 01:45:01;;;;;;;19.28;9.68;;;;;;;-2.02;71.10;97288.56;353556;112;1961971;-72
2021/01/31 01:46:19;;;;;;;15.41;8.15;;;;;;;-1.99;71.15;97305.89;353111;112;1960991;-72
2021/01/31 01:47:27;;;;;;;15.21;8.20;;;;;;;-1.97;70.94;97301.25;351922;113;1963084;-72
2021/01/31 01:48:34;;;;;;;14.64;7.97;;;;;;;-1.96;70.93;97297.58;328628;113;2359027;-71
2021/01/31 01:49:43;;;;;;;13.28;7.86;;;;;;;-2.04;71.25;97295.89;358809;108;1960794;-71
2021/01/31 01:50:52;;;;;;;13.34;7.49;;;;;;;-2.06;71.40;97297.89;361879;109;1962979;-72
2021/01/31 01:52:15;;;;;;;12.28;7.79;;;;;;;-1.90;70.78;97303.98;336425;109;1960846;-71
2021/01/31 01:53:24;;;;;;;12.28;6.79;;;;;;;-2.05;70.95;97318.03;305921;115;2725895;-72
2021/01/31 01:54:37;;;;;;;12.42;7.71;;;;;;;-2.13;71.59;97296.16;350524;113;1960850;-72
2021/01/31 01:56:01;;;;;;;11.97;7.53;;;;;;;-2.02;71.35;97299.14;354421;112;1961912;-72
2021/01/31 01:57:10;;;;;;;11.52;6.86;;;;;;;-2.04;71.45;97306.47;348263;113;1962675;-71
2021/01/31 01:58:19;;;;;;;10.54;6.08;;;;;;;-2.05;71.25;97312.75;309936;112;2108708;-71
2021/01/31 01:59:26;;;;;;;12.72;7.49;;;;;;;-2.00;71.07;97312.20;324037;115;2484018;-72
2021/01/31 02:00:34;;;;;;;11.61;6.92;;;;;;;-2.03;71.29;97308.09;350643;114;1966303;-71
2021/01/31 02:01:46;;;;;;;13.33;7.39;;;;;;;-2.03;71.51;97316.03;309511;112;2222062;-71
2021/01/31 02:02:58;;;;;;;12.67;6.89;;;;;;;-2.18;71.89;97320.50;350612;112;1962019;-71
2021/01/31 02:04:04;;;;;;;13.20;7.17;;;;;;;-2.00;71.62;97326.25;317441;114;2610008;-72
2021/01/31 02:05:13;;;;;;;12.03;7.29;;;;;;;-1.92;71.17;97322.68;338540;114;1963023;-71
2021/01/31 02:06:22;;;;;;;10.60;5.87;;;;;;;-1.95;71.32;97316.95;336349;112;1962953;-72
2021/01/31 02:07:29;;;;;;;11.58;6.03;;;;;;;-2.03;71.63;97334.55;312910;115;2063934;-71
2021/01/31 02:08:34;;;;;;;10.23;6.19;;;;;;;-1.99;71.49;97334.99;349521;113;1961996;-71
2021/01/31 02:09:49;;;;;;;10.02;5.73;;;;;;;-2.07;71.37;97341.20;348740;114;1962014;-71
2021/01/31 02:10:55;;;;;;;10.54;6.54;;;;;;;-2.14;71.70;97353.53;347193;114;1964052;-71
2021/01/31 02:12:04;;;;;;;9.32;5.09;;;;;;;-2.01;71.23;97345.78;315517;109;2645056;-70
2021/01/31 02:13:11;;;;;;;11.64;6.15;;;;;;;-1.96;70.97;97361.08;358742;111;1963954;-70
2021/01/31 02:14:16;;;;;;;11.53;5.56;;;;;;;-2.05;71.39;97362.19;358104;109;1962927;-70
2021/01/31 02:15:22;;;;;;;11.07;5.33;;;;;;;-2.05;71.57;97365.65;357903;112;1961898;-71
2021/01/31 02:16:41;;;;;;;9.37;5.55;;;;;;;-2.05;71.43;97363.00;364950;109;1961989;-71
2021/01/31 02:18:06;;;;;;;10.58;5.53;;;;;;;-2.02;71.40;97364.47;365087;111;1961984;-71
2021/01/31 02:19:51;;;;;;;8.18;4.97;;;;;;;-2.06;71.51;97353.44;363996;110;1962939;-70
2021/01/31 02:21:07;;;;;;;11.61;5.56;;;;;;;-2.16;71.85;97360.82;364448;109;1961930;-71
2021/01/31 02:22:40;;;;;;;9.09;5.54;;;;;;;-2.05;71.55;97363.00;332678;110;2537992;-71
2021/01/31 02:23:54;;;;;;;;;;;;;;;-2.06;71.61;97369.31;362749;111;1963087;-70
2021/01/31 02:25:12;;;;;;;9.32;4.50;;;;;;;-2.13;71.90;97371.03;358303;111;1961009;-70
2021/01/31 02:26:28;;;;;;;11.51;5.20;;;;;;;-2.14;72.10;97384.42;357058;111;1962016;-70
2021/01/31 02:28:00;;;;;;;10.06;5.21;;;;;;;-2.01;71.62;97377.52;353604;113;1962027;-70
2021/01/31 02:29:53;;;;;;;9.69;4.73;;;;;;;-2.06;71.65;97390.47;332365;112;2470953;-70
2021/01/31 02:31:36;;;;;;;11.28;5.32;;;;;;;-2.07;71.82;97378.23;364117;108;1961992;-70
2021/01/31 02:33:00;;;;;;;10.01;5.41;;;;;;;-1.94;71.49;97380.25;364687;108;1961967;-70
2021/01/31 02:34:09;;;;;;;10.05;5.48;;;;;;;-1.96;71.56;97392.02;359252;110;1964053;-70
2021/01/31 02:35:27;;;;;;;8.72;4.42;;;;;;;-1.97;71.47;97400.97;323357;110;1979974;-70
2021/01/31 02:37:14;;;;;;;9.94;4.77;;;;;;;-1.91;71.51;97402.87;364497;108;1961864;-70
2021/01/31 02:38:24;;;;;;;9.87;4.35;;;;;;;-1.86;71.28;97398.67;347525;112;1961957;-70
2021/01/31 02:39:39;;;;;;;9.23;4.96;;;;;;;-1.88;71.31;97395.41;347085;114;1961992;-70
2021/01/31 02:40:58;;;;;;;8.50;4.52;;;;;;;-1.96;71.65;97394.66;346373;115;1962007;-71
2021/01/31 02:42:28;;;;;;;8.31;4.82;;;;;;;-1.91;71.56;97408.16;346067;115;1961912;-70
2021/01/31 02:43:43;;;;;;;7.79;4.44;;;;;;;-1.92;71.67;97398.59;345231;115;1960935;-70
2021/01/31 02:45:04;;;;;;;9.03;4.84;;;;;;;-2.01;71.56;97405.81;343372;116;1961932;-70
2021/01/31 02:46:24;;;;;;;9.82;6.33;;;;;;;-1.94;71.68;97414.64;325168;117;2905978;-70
2021/01/31 02:47:33;;;;;;;11.77;5.54;;;;;;;-1.94;71.62;97411.99;332930;119;1961916;-70
2021/01/31 02:48:54;;;;;;;9.07;5.02;;;;;;;-1.94;71.62;97419.11;345044;116;1962009;-70
2021/01/31 02:50:04;;;;;;;8.84;4.76;;;;;;;-1.86;71.28;97411.09;317522;117;2885099;-70
2021/01/31 02:51:16;;;;;;;9.26;5.00;;;;;;;-1.87;71.31;97425.33;299575;116;2824990;-70
2021/01/31 02:52:25;;;;;;;9.08;4.84;;;;;;;-1.86;71.39;97424.31;341394;117;1962039;-71
2021/01/31 02:53:40;;;;;;;10.93;5.99;;;;;;;-1.88;71.50;97421.02;338005;118;1962059;-71
2021/01/31 02:54:52;;;;;;;8.75;5.03;;;;;;;-1.91;71.60;97427.50;338444;118;1962059;-70
2021/01/31 02:56:04;;;;;;;9.79;4.95;;;;;;;-1.93;71.65;97436.62;345727;116;1961941;-70
2021/01/31 02:57:19;;;;;;;9.16;4.84;;;;;;;-1.92;71.48;97425.87;343315;116;1962913;-71
2021/01/31 02:58:34;;;;;;;8.28;4.71;;;;;;;-1.93;71.47;97432.17;343959;116;1962004;-71
2021/01/31 03:00:08;;;;;;;9.88;4.71;;;;;;;-1.89;71.54;97440.56;351762;113;1961999;-70
2021/01/31 03:01:18;;;;;;;7.82;4.21;;;;;;;-1.93;71.64;97442.76;351522;113;1961973;-71
2021/01/31 03:02:27;;;;;;;8.19;4.22;;;;;;;-1.98;71.77;97434.55;351975;113;1961931;-70
2021/01/31 03:03:48;;;;;;;8.19;4.14;;;;;;;-1.95;71.68;97454.52;350448;113;1960768;-71
2021/01/31 03:05:06;;;;;;;8.09;4.01;;;;;;;-1.93;71.75;97457.78;345861;115;1963988;-71
2021/01/31 03:06:19;;;;;;;9.28;4.69;;;;;;;-1.97;71.87;97461.81;345713;115;1961929;-71
2021/01/31 03:07:39;;;;;;;8.73;3.94;;;;;;;-1.91;71.60;97458.44;324810;115;2387979;-72
2021/01/31 03:08:50;;;;;;;6.40;3.76;;;;;;;-1.87;71.49;97462.37;348330;113;1962003;-71
2021/01/31 03:10:05;;;;;;;6.61;3.87;;;;;;;-1.89;71.66;97478.42;357447;111;1962009;-70
2021/01/31 03:11:20;;;;;;;9.11;3.71;;;;;;;-1.87;71.60;97483.55;355698;111;1961989;-70
2021/01/31 03:12:35;;;;;;;7.58;4.01;;;;;;;-1.97;71.89;97481.15;350477;111;1960851;-71
2021/01/31 03:13:53;;;;;;;8.96;4.00;;;;;;;-1.88;71.73;97489.82;340570;118;1962963;-71
2021/01/31 03:15:02;;;;;;;8.14;3.92;;;;;;;-1.90;71.89;97483.91;336680;116;1961892;-70
2021/01/31 03:16:14;;;;;;;7.89;4.18;;;;;;;-1.86;71.83;97495.76;308059;116;2013085;-71
2021/01/31 03:17:28;;;;;;;7.77;3.62;;;;;;;-1.84;71.65;97507.00;342444;118;1961997;-70
2021/01/31 03:18:55;;;;;;;7.73;4.06;;;;;;;-1.89;71.87;97498.77;344486;116;1961900;-70
2021/01/31 03:20:08;;;;;;;8.06;4.57;;;;;;;-1.83;71.86;97500.69;342934;118;1963047;-70
2021/01/31 03:21:23;;;;;;;8.26;4.29;;;;;;;-1.84;71.68;97510.45;343062;118;1960991;-71
2021/01/31 03:22:34;;;;;;;8.45;4.22;;;;;;;-1.87;71.97;97507.36;343113;117;1961972;-71
2021/01/31 03:23:46;;;;;;;7.15;3.84;;;;;;;-1.82;71.73;97524.34;304445;113;2744049;-70
2021/01/31 03:24:55;;;;;;;7.82;4.33;;;;;;;-1.90;72.08;97513.83;347898;115;1961857;-71
2021/01/31 03:26:04;;;;;;;7.45;3.68;;;;;;;-1.87;71.93;97526.70;330233;114;1968989;-70
2021/01/31 03:27:16;;;;;;;9.24;3.93;;;;;;;-1.84;71.67;97528.98;309304;115;2225050;-70
2021/01/31 03:28:23;;;;;;;8.66;3.87;;;;;;;-1.88;71.92;97532.16;349439;114;1960835;-71
2021/01/31 03:29:29;;;;;;;6.90;3.59;;;;;;;-1.76;71.61;97541.31;319468;113;2615937;-71
2021/01/31 03:30:35;;;;;;;7.99;4.29;;;;;;;-1.74;71.43;97541.97;354927;113;1961885;-71
2021/01/31 03:31:47;;;;;;;7.58;3.73;;;;;;;-1.90;72.02;97534.19;353198;113;1961838;-71
2021/01/31 03:32:59;;;;;;;9.76;4.71;;;;;;;-1.87;71.98;97531.99;338087;113;2267893;-71
2021/01/31 03:34:09;;;;;;;;;;;;;;;-1.75;71.59;97537.66;357212;113;1960903;-72
2021/01/31 03:35:30;;;;;;;8.59;4.42;;;;;;;-1.75;71.51;97556.18;352845;113;1961024;-71
2021/01/31 03:36:43;;;;;;;7.22;3.79;;;;;;;-1.74;71.51;97563.14;338217;113;2261956;-72
2021/01/31 03:38:04;;;;;;;8.90;4.77;;;;;;;-1.69;71.23;97550.19;353743;112;1961978;-72
2021/01/31 03:39:12;;;;;;;11.09;5.17;;;;;;;-1.63;71.15;97561.87;354120;113;1961924;-72
2021/01/31 03:40:23;;;;;;;10.42;4.92;;;;;;;-1.60;71.16;97557.03;352623;112;1962058;-71
2021/01/31 03:41:31;;;;;;;9.56;4.43;;;;;;;-1.73;71.55;97564.77;324724;112;2526005;-72
2021/01/31 03:42:37;;;;;;;9.46;5.20;;;;;;;-1.63;71.16;97567.17;354503;112;1963965;-70
2021/01/31 03:43:42;;;;;;;8.78;4.71;;;;;;;-1.63;71.07;97561.87;352117;113;1961995;-70
2021/01/31 03:44:51;;;;;;;10.39;5.32;;;;;;;-1.71;71.42;97573.36;353427;112;1961981;-71
2021/01/31 03:46:25;;;;;;;8.69;4.72;;;;;;;-1.67;71.14;97577.28;354041;113;1961984;-71
2021/01/31 03:47:54;;;;;;;8.86;4.48;;;;;;;-1.65;71.06;97574.47;353345;113;1960701;-72
2021/01/31 03:49:18;;;;;;;8.90;4.77;;;;;;;-1.68;71.04;97582.77;352874;112;1962094;-71
2021/01/31 03:50:25;;;;;;;7.81;4.42;;;;;;;-1.76;71.12;97570.43;352688;113;1961974;-71
2021/01/31 03:51:33;;;;;;;8.90;4.54;;;;;;;-1.75;70.96;97576.54;352558;112;1960666;-71
2021/01/31 03:52:38;;;;;;;7.85;4.12;;;;;;;-1.75;71.04;97580.00;349465;115;1961887;-72
2021/01/31 03:53:45;;;;;;;7.53;4.40;;;;;;;-1.73;70.93;97575.36;349668;113;1962176;-71
2021/01/31 03:54:52;;;;;;;7.64;4.06;;;;;;;-1.80;70.95;97579.72;336188;113;2899045;-71
2021/01/31 03:55:58;;;;;;;9.95;4.61;;;;;;;-1.79;71.06;97573.44;354814;112;1962009;-71
2021/01/31 03:57:07;;;;;;;7.93;4.77;;;;;;;-1.80;70.83;97580.56;354863;112;1962058;-72
2021/01/31 03:58:16;;;;;;;8.47;4.67;;;;;;;-1.80;71.03;97587.66;354287;113;1961989;-71
2021/01/31 03:59:25;;;;;;;10.57;5.29;;;;;;;-1.78;71.10;97583.83;356168;111;1962062;-71
2021/01/31 04:00:37;;;;;;;8.55;4.49;;;;;;;-1.78;71.04;97589.12;354690;112;1962083;-71
2021/01/31 04:01:44;;;;;;;8.13;4.78;;;;;;;-1.79;71.12;97599.91;353254;113;1963929;-70
2021/01/31 04:03:01;;;;;;;9.65;4.73;;;;;;;-1.85;70.95;97595.33;328053;113;2229005;-70
2021/01/31 04:04:17;;;;;;;7.34;4.07;;;;;;;-1.80;70.84;97590.30;354116;113;1961979;-71
2021/01/31 04:05:27;;;;;;;7.24;4.42;;;;;;;-1.88;70.97;97606.25;309785;111;2850905;-70
2021/01/31 04:06:37;;;;;;;7.96;4.09;;;;;;;-1.96;70.88;97616.90;335722;112;1961958;-70
2021/01/31 04:07:46;;;;;;;9.17;4.02;;;;;;;-1.83;70.63;97615.30;355255;110;1960726;-70
2021/01/31 04:08:56;;;;;;;8.83;3.71;;;;;;;-2.05;70.71;97624.89;332707;109;1961992;-69
2021/01/31 04:10:04;;;;;;;7.72;4.82;;;;;;;-2.06;71.09;97617.16;332978;110;2489888;-70
2021/01/31 04:11:09;;;;;;;7.34;4.03;;;;;;;-2.01;71.18;97609.52;362485;111;1962980;-70
2021/01/31 04:12:21;;;;;;;7.32;3.97;;;;;;;-1.96;70.93;97615.06;358754;106;1962199;-70
2021/01/31 04:13:30;;;;;;;8.83;4.59;;;;;;;-1.90;70.95;97613.56;329723;113;2354970;-72
2021/01/31 04:14:48;;;;;;;6.97;4.01;;;;;;;-1.91;70.85;97628.59;317226;113;2919031;-71
2021/01/31 04:16:00;;;;;;;9.44;4.53;;;;;;;-1.88;70.80;97628.27;340966;117;1961959;-70
2021/01/31 04:17:05;;;;;;;9.06;4.42;;;;;;;-1.97;71.24;97631.14;308817;114;2225029;-69
2021/01/31 04:18:12;;;;;;;7.67;4.09;;;;;;;-1.92;71.00;97648.13;341713;113;1960728;-69
2021/01/31 04:19:19;;;;;;;8.96;4.33;;;;;;;-1.90;70.97;97624.97;349802;113;1963985;-71
2021/01/31 04:20:26;;;;;;;8.00;3.84;;;;;;;-1.87;70.78;97642.31;348479;113;1961959;-70
2021/01/31 04:21:32;;;;;;;9.00;4.48;;;;;;;-1.81;70.62;97634.47;348994;115;1962060;-69
2021/01/31 04:22:38;;;;;;;8.19;4.98;;;;;;;-1.79;70.67;97653.65;313262;113;2239783;-70
2021/01/31 04:23:44;;;;;;;9.06;4.44;;;;;;;-1.91;70.85;97648.94;345888;115;1962021;-71
2021/01/31 04:24:49;;;;;;;11.29;5.05;;;;;;;-1.83;70.72;97643.59;349611;113;1961929;-71
2021/01/31 04:25:55;;;;;;;9.06;4.36;;;;;;;-1.75;70.42;97650.64;349111;113;1961996;-71
2021/01/31 04:27:01;;;;;;;9.23;4.84;;;;;;;-1.85;70.82;97653.55;344328;115;1962947;-71
2021/01/31 04:28:09;;;;;;;7.72;4.27;;;;;;;-1.86;70.59;97642.12;317263;117;2388167;-71
2021/01/31 04:29:15;;;;;;;8.45;4.45;;;;;;;-1.79;70.70;97660.77;353248;109;1961070;-71
2021/01/31 04:30:23;;;;;;;9.08;4.54;;;;;;;-1.77;70.67;97656.95;359154;107;1961955;-71
2021/01/31 04:31:30;;;;;;;7.94;4.36;;;;;;;-1.81;70.68;97655.64;350282;113;1962992;-71
2021/01/31 04:32:36;;;;;;;7.69;4.31;;;;;;;-1.73;70.77;97659.23;312616;108;2220931;-72
2021/01/31 04:33:41;;;;;;;8.36;4.41;;;;;;;-1.69;70.39;97657.87;348018;114;1961983;-71
2021/01/31 04:34:46;;;;;;;8.34;4.62;;;;;;;-1.71;70.44;97663.36;347107;116;1961995;-71
2021/01/31 04:35:53;;;;;;;9.37;4.97;;;;;;;-1.72;70.57;97667.02;339231;119;1961991;-72
2021/01/31 04:36:59;;;;;;;9.52;6.10;;;;;;;-1.76;70.64;97663.06;314618;116;2588852;-71
2021/01/31 04:38:06;;;;;;;9.14;4.44;;;;;;;-1.70;70.47;97672.11;341696;114;1961955;-71
2021/01/31 04:39:12;;;;;;;7.96;4.66;;;;;;;-1.70;70.48;97667.64;348713;114;1960883;-71
2021/01/31 04:40:19;;;;;;;9.55;5.43;;;;;;;-1.76;70.54;97668.36;323699;107;2565035;-71
2021/01/31 04:41:29;;;;;;;8.60;4.58;;;;;;;-1.78;70.51;97665.88;365993;107;1961924;-71
2021/01/31 04:42:35;;;;;;;8.78;4.38;;;;;;;-1.69;70.28;97686.98;359838;107;1960822;-71
2021/01/31 04:43:42;;;;;;;9.95;5.50;;;;;;;-1.70;70.32;97690.64;360700;111;1961928;-71
2021/01/31 04:44:49;;;;;;;9.11;4.34;;;;;;;-1.73;70.54;97683.87;328834;109;1962038;-71
2021/01/31 04:46:09;;;;;;;7.95;4.57;;;;;;;-1.80;70.91;97697.01;362744;109;1961930;-71
2021/01/31 04:47:30;;;;;;;7.99;4.13;;;;;;;-1.80;70.77;97707.59;348905;114;1962057;-71
2021/01/31 04:49:04;;;;;;;7.86;4.53;;;;;;;-1.69;70.51;97695.77;321272;111;2045075;-70
2021/01/31 04:50:24;;;;;;;8.91;4.47;;;;;;;-1.71;70.52;97702.24;357202;105;1962007;-70
2021/01/31 04:51:52;;;;;;;8.34;4.01;;;;;;;-1.75;70.61;97704.40;333006;111;1961950;-71
2021/01/31 04:53:13;;;;;;;7.86;4.75;;;;;;;-1.83;70.67;97720.33;355042;111;1961935;-71
2021/01/31 04:54:37;;;;;;;8.73;4.44;;;;;;;-1.82;70.57;97720.17;324143;109;2236943;-72
2021/01/31 04:56:01;;;;;;;9.08;5.12;;;;;;;-1.94;71.05;97723.39;343684;116;1969050;-71
2021/01/31 04:57:14;;;;;;;8.52;4.60;;;;;;;-1.83;70.74;97733.56;328059;109;2924937;-72
2021/01/31 04:58:27;;;;;;;9.24;4.38;;;;;;;-1.88;70.93;97730.62;355055;112;1962990;-72
2021/01/31 04:59:37;;;;;;;7.56;4.59;;;;;;;-1.82;70.74;97738.70;328747;110;2433960;-72
2021/01/31 05:00:46;;;;;;;8.76;4.93;;;;;;;-1.77;70.53;97740.83;329685;110;1960916;-71
2021/01/31 05:01:59;;;;;;;8.42;4.68;;;;;;;-1.81;70.67;97736.87;335543;110;2400001;-72
2021/01/31 05:03:05;;;;;;;8.08;4.36;;;;;;;-1.75;70.54;97736.16;360553;111;1961958;-72
2021/01/31 05:04:13;;;;;;;9.69;5.03;;;;;;;-1.72;70.46;97729.69;359319;110;1961988;-71
2021/01/31 05:05:41;;;;;;;9.72;4.82;;;;;;;-1.75;70.48;97740.64;314486;111;2809985;-72
2021/01/31 05:06:51;;;;;;;11.73;5.63;;;;;;;-1.75;70.35;97740.64;358514;108;1961888;-72
2021/01/31 05:08:00;;;;;;;9.22;5.26;;;;;;;-1.70;70.35;97744.41;348744;113;1962896;-72
2021/01/31 05:09:05;;;;;;;10.04;4.73;;;;;;;-1.67;70.38;97753.81;332616;111;1960978;-72
2021/01/31 05:10:12;;;;;;;9.75;5.06;;;;;;;-1.72;70.52;97754.36;354768;113;1961925;-72
2021/01/31 05:11:34;;;;;;;10.03;5.67;;;;;;;-1.74;70.65;97748.41;356065;111;1962958;-73
2021/01/31 05:12:48;;;;;;;9.28;4.93;;;;;;;-1.73;70.54;97750.05;321511;115;1962848;-72
2021/01/31 05:14:06;;;;;;;9.50;5.49;;;;;;;-1.69;70.42;97754.01;318965;112;1963011;-72
2021/01/31 05:15:21;;;;;;;8.68;4.69;;;;;;;-1.75;70.65;97759.16;353829;112;1961928;-73
2021/01/31 05:16:29;;;;;;;9.57;5.44;;;;;;;-1.68;70.31;97755.64;340736;114;1961929;-72
2021/01/31 05:17:34;;;;;;;10.44;5.53;;;;;;;-1.83;70.38;97744.97;352785;112;1963831;-73
2021/01/31 05:18:46;;;;;;;10.22;5.29;;;;;;;-1.79;70.59;97766.64;353357;112;1961996;-71
2021/01/31 05:19:53;;;;;;;9.37;5.47;;;;;;;-1.76;70.72;97766.28;351475;112;1962976;-72
2021/01/31 05:21:05;;;;;;;9.13;5.41;;;;;;;-1.72;70.71;97764.10;352203;112;1961951;-71
2021/01/31 05:22:13;;;;;;;8.73;5.38;;;;;;;-1.70;70.67;97770.05;328625;112;2425016;-72
2021/01/31 05:23:19;;;;;;;9.96;5.69;;;;;;;-1.67;70.27;97782.94;354419;112;1961945;-72
2021/01/31 05:24:26;;;;;;;11.03;5.56;;;;;;;-1.74;70.35;97780.17;317616;112;2679097;-72